ADDS METAR Data INFO
IDs: Format: Raw Decoded Include TAF

Data at: 0010 UTC 25 Nov 2017

KGGG 242353Z 18007KT 10SM CLR 14/06 A2986 RMK AO2 SLP114 T01440056 10222 20144 55005
KGGG 242253Z 18006KT 10SM CLR 19/06 A2986 RMK AO2 SLP112 T01890056
KGGG 242153Z 19009KT 10SM CLR 21/04 A2987 RMK AO2 SLP113 T02110044
KGGG 242053Z 18007KT 10SM CLR 22/04 A2988 RMK AO2 SLP117 T02170044 56029
KGGG 241953Z 19010KT 10SM CLR 22/04 A2990 RMK AO2 SLP124 T02170039
KGGG 241853Z 20010G14KT 10SM CLR 21/03 A2993 RMK AO2 SLP135 T02060033
KGGG 241753Z 19006KT 10SM CLR 19/04 A2996 RMK AO2 SLP146 T01940039 10200 20028 58013
KGGG 241653Z 19010KT 10SM CLR 18/03 A2999 RMK AO2 SLP154 T01830033
KGGG 241553Z 19008KT 10SM CLR 14/05 A3000 RMK AO2 SLP160 T01440050
KGGG 241453Z 18008KT 10SM CLR 11/05 A3000 RMK AO2 SLP160 T01060050 50000
KGGG 241353Z 17003KT 10SM CLR 06/04 A3000 RMK AO2 SLP162 T00610044
KGGG 241253Z 00000KT 10SM CLR 03/03 A3000 RMK AO2 SLP163 T00330028
KGGG 241153Z 16003KT 10SM CLR 04/03 A3000 RMK AO2 SLP160 T00440028 10056 20039 55007
KGGG 241053Z AUTO 18005KT 10SM CLR 04/02 A2999 RMK AO2 SLP158 T00390022
KGGG 240953Z AUTO 18005KT 10SM CLR 05/03 A3001 RMK AO2 SLP161 T00500028
KGGG 240853Z AUTO 16004KT 10SM CLR 04/03 A3002 RMK AO2 SLP166 T00440028 56010
KGGG 240753Z AUTO 17004KT 10SM CLR 04/03 A3003 RMK AO2 SLP169 T00440028
KGGG 240653Z AUTO 16004KT 10SM CLR 04/03 A3004 RMK AO2 SLP173 T00440033
KGGG 240553Z AUTO 17003KT 10SM CLR 06/03 A3005 RMK AO2 SLP177 T00560028 10111 20050 401721011 56010
KGGG 240453Z AUTO 19003KT 10SM CLR 06/04 A3006 RMK AO2 SLP181 T00610039
KGGG 240353Z AUTO 18004KT 10SM CLR 06/04 A3006 RMK AO2 SLP182 T00610044
KGGG 240253Z 17003KT 10SM CLR 06/05 A3008 RMK AO2 SLP188 T00610050 53004
KGGG 240153Z 15003KT 10SM CLR 08/06 A3007 RMK AO2 SLP186 T00780056
KGGG 240053Z 17004KT 10SM CLR 08/04 A3007 RMK AO2 SLP186 T00830039
KGGG 232353Z 00000KT 10SM CLR 11/04 A3007 RMK AO2 SLP185 T01060044 10172 20106 55004
KGGG 232253Z 00000KT 10SM CLR 14/02 A3006 RMK AO2 SLP183 T01440022
KGGG 232153Z 00000KT 10SM CLR 17/00 A3007 RMK AO2 SLP183 T01720000
KGGG 232053Z 00000KT 10SM CLR 17/00 A3008 RMK AO2 SLP187 T01670000 56028
KGGG 231953Z 00000KT 10SM CLR 16/00 A3010 RMK AO2 SLP193 T01610000
KGGG 231853Z 00000KT 10SM CLR 14/00 A3013 RMK AO2 SLP203 T01440000
KGGG 231753Z 28003KT 10SM CLR 13/01 A3016 RMK AO2 SLP216 T01330006 10133 21006 58018
KGGG 231653Z 00000KT 10SM CLR 11/02 A3020 RMK AO2 SLP228 T01060017
KGGG 231553Z 18004KT 10SM CLR 09/02 A3022 RMK AO2 SLP236 T00890017
KGGG 231453Z 00000KT 10SM CLR 06/03 A3022 RMK AO2 SLP235 T00560028 53009
KGGG 231353Z 00000KT 10SM CLR 02/01 A3021 RMK AO2 SLP232 T00170011
KGGG 231253Z 00000KT 10SM CLR 00/00 A3020 RMK AO2 SLP230 T00000000